Details From TTPP - Trinidad/Piarco Intl
To TTCP - Tobago/Crown Point Intl
Flight Number -
Tags decoded
Created
Modified
Stats Distance 105 nm / 195 km
Max Altitude 0 ft / 0 m
Waypoints 10
Social Downloads 7
Likes 0
Share VATSIM

Download

Looking for another format? Having issues loading an existing format? Contact us
Advertisement - Login to hide

Notes

Requested: TTPP BOSAT ALNOT POS BENAV SHARK OMEGO SASIM NOTEL TTCP

Route

TTPP BOSAT ALNOT POS BENAV SHARK OMEGO SASIM NOTEL TTCP

ID Type Via Altitude Latitude Longitude Leg Dist Tot Dist Heading (true) Name
O TTPP APT - 0 ft / 0 m 10.59537˚ -61.33724˚ - 0 nm - Trinidad/Piarco Intl
BOSAT FIX - 0 ft / 0 m 10.59667˚ -61.15333˚ 10 nm 10 nm 90° / 90° -
ALNOT FIX - 0 ft / 0 m 10.51167˚ -61.15333˚ 5 nm 15 nm 180° / 180° -
POS VOR - 0 ft / 0 m 10.46639˚ -61.39236˚ 14 nm 30 nm 259° / 259° PIARCO VOR-DME
BENAV FIX - 0 ft / 0 m 10.51167˚ -61.52167˚ 8 nm 38 nm 290° / 290° -
SHARK FIX - 0 ft / 0 m 10.59559˚ -61.60961˚ 7 nm 45 nm 314° / 314° -
OMEGO FIX - 0 ft / 0 m 10.67833˚ -61.51833˚ 7 nm 53 nm 47° / 47° -
SASIM FIX - 0 ft / 0 m 11.16333˚ -61.01333˚ 41 nm 94 nm 46° / 46° -
NOTEL FIX - 0 ft / 0 m 11.15667˚ -60.92833˚ 5 nm 99 nm 95° / 95° -
O TTCP APT - 0 ft / 0 m 11.14966˚ -60.83220˚ 5 nm 105 nm 94° / 94° Tobago/Crown Point Intl

Altitude Profile

Advertisement - Login to hide

TTPP

Details ICAO TTPP (POS)
Name Trinidad/Piarco Intl
Region Trinidad and Tobago
Timezone America/Port_of_Spain (UTC-4.0)
Stats Elevation 57 ft / 17 m (AMSL)
Location 10.595370° -61.337239°
Runways 1
Magnetic Variation 15.001° W

METAR

TTPP 150200Z 00000KT 9999 FEW018 25/22 Q1014 NOSIG

Decode

TAF

Not found

Departure Runways

ID Width Length Bearing (true) Bearing (mag) Surface Threshold Offset Overrun Length
10 151 ft / 46 m 10,486 ft / 3,196 m 89.83° 104.83° Asphalt 0 ft / 0 m 79 ft / 24 m
28 151 ft / 46 m 10,486 ft / 3,196 m 269.84° 284.84° Asphalt 0 ft / 0 m 184 ft / 56 m

TTCP

Details ICAO TTCP (TAB)
Name Tobago/Crown Point Intl
Region Trinidad and Tobago
Timezone America/Port_of_Spain (UTC-4.0)
Stats Elevation 36 ft / 11 m (AMSL)
Location 11.149660° -60.832196°
Runways 1
Magnetic Variation 15.193° W

METAR

TTCP 150200Z 00000KT 9999 FEW016 25/22 Q1015 NOSIG

Decode

TAF

Not found

Destination Runways

ID Width Length Bearing (true) Bearing (mag) Surface Threshold Offset Overrun Length
11 148 ft / 45 m 8,995 ft / 2,742 m 94.17° 109.36° Asphalt 1,004 ft / 306 m 0 ft / 0 m
29 148 ft / 45 m 8,995 ft / 2,742 m 274.17° 289.36° Asphalt 0 ft / 0 m 299 ft / 91 m

Approach Navaids

Runway Type Ident Frequency Range Bearing (true) Bearing (mag) Slope Elevation
11 Localiser ITAB 109.30 MHz 18 nm / 33 km 94.17° 109.36° - 36 ft / 11 m (AMSL)
11 Glidescope ITAB 109.30 MHz 10 nm / 19 km 94.17° 109.36° 3.00° 36 ft / 11 m (AMSL)
11 DME ITAB 109.30 MHz 18 nm / 33 km - - - 36 ft / 11 m (AMSL)

Popular Alternatives